Time;durP1;ratioP1;P1;durP2;ratioP2;P2;SDS_P1;SDS_P2;PMS_P1;PMS_P2;Temp;Humidity;BMP_temperature;BMP_pressure;BME280_temperature;BME280_humidity;BME280_pressure;Samples;Min_cycle;Max_cycle;Signal;HPM_P1;HPM_P2
2023/09/27 00:02:25;;;;;;;19.05;10.38;;;;;12.50;96815.00;;;;8332856;28;20713;-64
2023/09/27 00:06:30;;;;;;;20.65;11.10;;;;;12.50;96820.00;;;;8326694;28;20202;-63
2023/09/27 00:10:35;;;;;;;23.92;10.20;;;;;12.50;96808.00;;;;8339344;28;20246;-64
2023/09/27 00:14:40;;;;;;;18.77;9.88;;;;;12.50;96817.00;;;;8326398;28;20890;-63
2023/09/27 00:18:45;;;;;;;19.42;10.73;;;;;12.50;96823.00;;;;8341556;28;20217;-64
2023/09/27 00:22:48;;;;;;;19.67;10.07;;;;;12.40;96811.00;;;;8340214;28;20308;-64
2023/09/27 00:26:54;;;;;;;23.42;10.45;;;;;12.40;96807.00;;;;8336434;28;20212;-63
2023/09/27 00:31:02;;;;;;;21.98;11.48;;;;;12.40;96813.00;;;;8333851;28;20205;-64
2023/09/27 00:35:12;;;;;;;23.05;10.90;;;;;12.40;96817.00;;;;8330771;28;20274;-64
2023/09/27 00:39:15;;;;;;;24.50;10.75;;;;;12.30;96809.00;;;;8337571;28;20197;-64
2023/09/27 00:43:27;;;;;;;46.20;12.52;;;;;12.40;96806.00;;;;8335322;28;20527;-64
2023/09/27 00:47:33;;;;;;;20.33;10.18;;;;;12.30;96804.00;;;;8333362;28;20211;-64
2023/09/27 00:51:38;;;;;;;115.53;12.68;;;;;12.30;96800.00;;;;8327362;28;20312;-64
2023/09/27 00:55:42;;;;;;;30.65;11.02;;;;;12.30;96799.00;;;;8337029;28;20223;-64
2023/09/27 00:59:46;;;;;;;29.15;13.07;;;;;12.20;96791.00;;;;8340828;28;20328;-64
2023/09/27 01:03:55;;;;;;;21.92;10.25;;;;;12.10;96788.00;;;;8334203;28;20318;-63
2023/09/27 01:08:07;;;;;;;34.60;12.88;;;;;12.10;96788.00;;;;8334948;28;20299;-63
2023/09/27 01:12:10;;;;;;;26.23;12.05;;;;;12.10;96787.00;;;;8326685;28;20277;-64
2023/09/27 01:16:13;;;;;;;18.25;9.60;;;;;12.10;96790.00;;;;8341545;28;20231;-63
2023/09/27 01:20:18;;;;;;;240.13;16.38;;;;;12.00;96781.00;;;;8332224;28;20429;-64
2023/09/27 01:24:26;;;;;;;24.42;10.95;;;;;12.00;96780.00;;;;8332441;28;20194;-64
2023/09/27 01:28:30;;;;;;;27.52;11.10;;;;;11.90;96773.00;;;;8338825;28;20300;-63
2023/09/27 01:32:34;;;;;;;25.20;10.43;;;;;11.90;96785.00;;;;8334288;28;20991;-64
2023/09/27 01:36:37;;;;;;;27.50;11.32;;;;;11.80;96784.00;;;;8323030;28;20362;-63
2023/09/27 01:40:43;;;;;;;28.88;12.90;;;;;11.80;96795.00;;;;8330466;28;20202;-63
2023/09/27 01:44:46;;;;;;;32.25;12.65;;;;;11.80;96785.00;;;;8338215;28;20637;-64
2023/09/27 01:48:52;;;;;;;41.88;11.48;;;;;11.80;96784.00;;;;8332352;28;20207;-64
2023/09/27 01:52:57;;;;;;;445.52;24.70;;;;;11.80;96776.00;;;;8320893;28;20200;-64
2023/09/27 01:57:10;;;;;;;128.90;15.18;;;;;11.60;96771.00;;;;8330532;28;20228;-64
2023/09/27 02:01:16;;;;;;;148.65;14.50;;;;;11.60;96768.00;;;;8320030;28;20291;-64
2023/09/27 02:05:20;;;;;;;29.83;11.20;;;;;11.60;96761.00;;;;8317511;28;20238;-64
2023/09/27 02:09:23;;;;;;;26.38;11.20;;;;;11.60;96755.00;;;;8335184;28;20210;-64
2023/09/27 02:13:27;;;;;;;27.20;11.48;;;;;11.60;96764.00;;;;8322621;28;20200;-63
2023/09/27 02:17:32;;;;;;;20.95;10.93;;;;;11.50;96766.00;;;;8333363;28;20354;-63
2023/09/27 02:21:36;;;;;;;33.05;11.55;;;;;11.50;96769.00;;;;8341892;28;20189;-63
2023/09/27 02:25:46;;;;;;;27.40;11.02;;;;;11.50;96773.00;;;;8326013;28;20224;-63
2023/09/27 02:29:52;;;;;;;26.80;10.73;;;;;11.50;96775.00;;;;8323386;28;20697;-63
2023/09/27 02:33:57;;;;;;;19.63;9.82;;;;;11.50;96779.00;;;;8327664;28;20228;-63
2023/09/27 02:38:00;;;;;;;23.90;10.57;;;;;11.50;96775.00;;;;8325881;28;20237;-63
2023/09/27 02:42:04;;;;;;;61.85;12.80;;;;;11.50;96778.00;;;;8328798;28;20638;-63
2023/09/27 02:46:09;;;;;;;29.08;11.60;;;;;11.40;96782.00;;;;8330274;28;20280;-63
2023/09/27 02:50:14;;;;;;;21.27;11.32;;;;;11.40;96776.00;;;;8322268;28;20262;-63
2023/09/27 02:54:19;;;;;;;24.27;11.80;;;;;11.40;96782.00;;;;8324639;28;20218;-63
2023/09/27 02:58:22;;;;;;;23.95;10.70;;;;;11.40;96795.00;;;;8329323;28;20239;-63
2023/09/27 03:02:31;;;;;;;18.92;9.23;;;;;11.30;96792.00;;;;8338222;22;20233;-63
2023/09/27 03:06:36;;;;;;;19.40;9.65;;;;;11.30;96793.00;;;;8269374;28;20234;-63
2023/09/27 03:10:39;;;;;;;21.80;9.32;;;;;11.20;96788.00;;;;8263847;28;20211;-63
2023/09/27 03:14:46;;;;;;;17.80;9.73;;;;;11.20;96791.00;;;;8272233;28;20299;-63
2023/09/27 03:18:50;;;;;;;131.32;12.95;;;;;11.10;96805.00;;;;8256702;28;20209;-63
2023/09/27 03:22:54;;;;;;;25.35;10.32;;;;;11.10;96798.00;;;;8262213;28;20213;-63
2023/09/27 03:26:58;;;;;;;36.63;10.73;;;;;11.10;96803.00;;;;8270935;28;20655;-63
2023/09/27 03:31:05;;;;;;;755.10;36.65;;;;;11.10;96805.00;;;;8264069;28;20236;-63
2023/09/27 03:35:10;;;;;;;27.30;11.20;;;;;11.00;96813.00;;;;8273230;28;20253;-63
2023/09/27 03:39:22;;;;;;;41.60;12.77;;;;;11.00;96806.00;;;;8264797;28;20197;-64
2023/09/27 03:43:25;;;;;;;42.35;12.32;;;;;10.90;96800.00;;;;8269603;28;20201;-64
2023/09/27 03:47:30;;;;;;;36.33;11.70;;;;;10.80;96800.00;;;;8281469;28;20202;-64
2023/09/27 03:51:34;;;;;;;51.40;11.20;;;;;10.70;96803.00;;;;8276552;28;20301;-64
2023/09/27 03:55:41;;;;;;;27.00;10.98;;;;;10.70;96812.00;;;;8272270;28;20419;-63
2023/09/27 03:59:45;;;;;;;39.13;10.30;;;;;10.70;96802.00;;;;8274939;28;20806;-63
2023/09/27 04:03:48;;;;;;;22.90;9.85;;;;;10.60;96809.00;;;;8253458;28;20221;-63
2023/09/27 04:07:54;;;;;;;27.48;11.20;;;;;10.70;96806.00;;;;8248483;28;20199;-63
2023/09/27 04:12:00;;;;;;;21.83;10.35;;;;;10.70;96805.00;;;;8242523;28;20229;-63
2023/09/27 04:16:04;;;;;;;17.15;9.82;;;;;10.70;96813.00;;;;8248305;28;20227;-64
2023/09/27 04:20:17;;;;;;;61.40;10.90;;;;;10.70;96812.00;;;;8249493;28;20254;-64
2023/09/27 04:24:26;;;;;;;21.23;8.88;;;;;10.80;96814.00;;;;8241906;28;20466;-64
2023/09/27 04:28:32;;;;;;;15.13;8.90;;;;;10.70;96808.00;;;;8248316;28;20190;-64
2023/09/27 04:32:36;;;;;;;15.98;9.15;;;;;10.70;96807.00;;;;8232449;28;20613;-63
2023/09/27 04:36:40;;;;;;;22.90;10.55;;;;;10.60;96816.00;;;;8220927;28;20234;-63
2023/09/27 04:40:46;;;;;;;23.83;10.50;;;;;10.60;96820.00;;;;8238628;28;20202;-63
2023/09/27 04:44:52;;;;;;;30.15;10.18;;;;;10.60;96819.00;;;;8245990;28;20279;-63
2023/09/27 04:48:55;;;;;;;17.77;9.27;;;;;10.60;96827.00;;;;8251337;28;20719;-64
2023/09/27 04:52:59;;;;;;;26.13;11.10;;;;;10.50;96829.00;;;;8257314;28;20228;-64
2023/09/27 04:57:09;;;;;;;20.10;9.32;;;;;10.60;96839.00;;;;8260669;28;21109;-64
2023/09/27 05:01:14;;;;;;;25.38;11.20;;;;;10.70;96842.00;;;;8251749;28;20293;-64
2023/09/27 05:05:19;;;;;;;23.33;10.95;;;;;10.80;96848.00;;;;8245262;28;20297;-64
2023/09/27 05:09:23;;;;;;;38.28;11.70;;;;;11.00;96847.00;;;;8246137;28;20203;-64
2023/09/27 05:13:29;;;;;;;30.27;11.02;;;;;11.10;96832.00;;;;8246233;28;20278;-64
2023/09/27 05:17:34;;;;;;;38.00;12.20;;;;;11.20;96836.00;;;;8243141;28;22718;-64
2023/09/27 05:21:38;;;;;;;58.05;13.77;;;;;11.40;96844.00;;;;8266436;28;20209;-64
2023/09/27 05:25:43;;;;;;;342.80;24.92;;;;;11.50;96845.00;;;;8248407;28;20198;-64
2023/09/27 05:29:49;;;;;;;90.43;16.48;;;;;11.60;96844.00;;;;8246474;28;20250;-64
2023/09/27 05:33:53;;;;;;;204.82;19.75;;;;;11.70;96845.00;;;;8240437;28;20204;-64
2023/09/27 05:37:57;;;;;;;295.27;22.65;;;;;11.70;96845.00;;;;8239207;28;20726;-64
2023/09/27 05:42:00;;;;;;;372.17;25.17;;;;;11.80;96853.00;;;;8246455;28;20593;-64
2023/09/27 05:46:04;;;;;;;403.60;26.48;;;;;11.90;96861.00;;;;8249955;28;20877;-64
2023/09/27 05:50:09;;;;;;;101.38;16.48;;;;;12.10;96860.00;;;;8239564;28;20216;-65
2023/09/27 05:54:12;;;;;;;355.27;26.70;;;;;12.20;96852.00;;;;8237905;28;20197;-64
2023/09/27 05:58:15;;;;;;;109.60;17.50;;;;;12.40;96866.00;;;;8240891;28;20615;-64
2023/09/27 06:02:20;;;;;;;70.30;16.00;;;;;12.50;96869.00;;;;8231651;28;20239;-65
2023/09/27 06:06:24;;;;;;;183.65;19.65;;;;;12.60;96875.00;;;;8240343;28;20289;-64
2023/09/27 06:10:27;;;;;;;330.67;24.52;;;;;12.80;96878.00;;;;8242864;28;21632;-64
2023/09/27 06:14:32;;;;;;;108.57;17.45;;;;;13.00;96875.00;;;;8241617;28;20211;-65
2023/09/27 06:18:38;;;;;;;56.15;14.35;;;;;13.20;96871.00;;;;8246552;28;20670;-65
2023/09/27 06:22:45;;;;;;;205.70;22.08;;;;;13.30;96877.00;;;;8241809;28;20233;-66
2023/09/27 06:26:48;;;;;;;286.63;25.40;;;;;13.50;96876.00;;;;8247474;28;20230;-66
2023/09/27 06:30:52;;;;;;;411.35;28.30;;;;;13.70;96887.00;;;;8238443;28;20298;-67
2023/09/27 06:35:00;;;;;;;94.22;16.48;;;;;13.90;96887.00;;;;8238665;28;20198;-68
2023/09/27 06:39:07;;;;;;;183.68;21.38;;;;;14.10;96891.00;;;;8247027;28;20265;-67
2023/09/27 06:43:14;;;;;;;264.55;23.20;;;;;14.20;96902.00;;;;8238457;28;20201;-66
2023/09/27 06:47:20;;;;;;;51.33;14.63;;;;;14.20;96907.00;;;;8242019;28;20210;-68
2023/09/27 06:51:27;;;;;;;48.10;13.80;;;;;14.40;96911.00;;;;8241102;28;20203;-68
2023/09/27 06:55:31;;;;;;;46.60;14.30;;;;;14.60;96924.00;;;;8242365;28;20198;-68
2023/09/27 06:59:36;;;;;;;74.90;17.33;;;;;14.90;96925.00;;;;8243397;28;20242;-68
2023/09/27 07:03:40;;;;;;;71.15;17.38;;;;;15.20;96930.00;;;;8236854;28;20227;-68
2023/09/27 07:07:47;;;;;;;124.13;24.35;;;;;15.30;96932.00;;;;8241599;28;20258;-68
2023/09/27 07:11:51;;;;;;;208.52;40.53;;;;;15.50;96933.00;;;;8250432;28;20216;-67
2023/09/27 07:15:56;;;;;;;101.07;36.33;;;;;15.80;96933.00;;;;8251940;28;20297;-67
2023/09/27 07:20:00;;;;;;;181.02;22.52;;;;;16.00;96938.00;;;;8247716;28;20234;-67
2023/09/27 07:24:09;;;;;;;79.03;18.42;;;;;16.30;96948.00;;;;8248298;28;20896;-66
2023/09/27 07:28:16;;;;;;;155.02;27.25;;;;;16.50;96942.00;;;;8245839;28;20213;-66
2023/09/27 07:32:20;;;;;;;91.57;36.75;;;;;16.80;96957.00;;;;8243553;28;20293;-66
2023/09/27 07:36:24;;;;;;;33.92;13.20;;;;;16.90;96953.00;;;;8244030;28;20195;-67
2023/09/27 07:40:30;;;;;;;35.78;13.23;;;;;17.20;96960.00;;;;8248273;28;20209;-67
2023/09/27 07:44:33;;;;;;;39.90;13.30;;;;;17.50;96961.00;;;;8244079;28;20231;-66
2023/09/27 07:48:44;;;;;;;21.95;11.45;;;;;17.60;96955.00;;;;8242288;28;20986;-67
2023/09/27 07:52:48;;;;;;;19.13;10.82;;;;;17.80;96960.00;;;;8239981;28;20542;-66
2023/09/27 07:56:55;;;;;;;16.40;10.90;;;;;18.10;96956.00;;;;8247298;28;20261;-66
2023/09/27 08:00:58;;;;;;;16.63;10.30;;;;;18.50;96957.00;;;;8238081;28;20206;-67
2023/09/27 08:05:09;;;;;;;18.77;10.73;;;;;18.90;96963.00;;;;8245481;28;20227;-66
2023/09/27 08:09:22;;;;;;;16.48;10.95;;;;;19.30;96954.00;;;;8237814;28;20298;-66
2023/09/27 08:13:44;;;;;;;11.48;9.38;;;;;19.60;96963.00;;;;8241724;28;20202;-66
2023/09/27 08:17:52;;;;;;;17.55;10.27;;;;;19.80;96956.00;;;;8242027;28;20241;-66
2023/09/27 08:21:59;;;;;;;13.52;9.77;;;;;19.90;96955.00;;;;8250054;28;20982;-66
2023/09/27 08:26:06;;;;;;;12.80;9.30;;;;;20.00;96948.00;;;;8238317;28;20321;-66
2023/09/27 08:30:12;;;;;;;16.33;10.30;;;;;20.10;96945.00;;;;8245426;28;20202;-67
2023/09/27 08:34:16;;;;;;;13.50;10.40;;;;;20.30;96945.00;;;;8239946;28;20202;-67
2023/09/27 08:38:21;;;;;;;15.93;10.75;;;;;20.60;96937.00;;;;8241729;28;20310;-67
2023/09/27 08:42:25;;;;;;;18.13;10.88;;;;;21.00;96935.00;;;;8244627;28;20203;-67
2023/09/27 08:46:36;;;;;;;16.83;11.55;;;;;21.40;96927.00;;;;8242762;28;20210;-67
2023/09/27 08:50:44;;;;;;;20.88;12.13;;;;;21.80;96928.00;;;;8247431;28;20636;-67
2023/09/27 08:54:49;;;;;;;18.63;12.27;;;;;22.20;96931.00;;;;8247347;28;20242;-67
2023/09/27 08:58:53;;;;;;;17.75;12.85;;;;;22.80;96935.00;;;;8241760;28;20214;-67
2023/09/27 09:03:00;;;;;;;16.60;10.05;;;;;23.50;96930.00;;;;8240865;28;20341;-67
2023/09/27 09:07:09;;;;;;;9.80;8.25;;;;;23.80;96925.00;;;;8245638;28;20213;-67
2023/09/27 09:11:13;;;;;;;9.60;7.93;;;;;24.00;96926.00;;;;8249355;28;20630;-68
2023/09/27 09:15:28;;;;;;;10.88;8.07;;;;;24.10;96923.00;;;;8248173;28;20215;-68
2023/09/27 09:19:38;;;;;;;11.77;8.18;;;;;24.20;96932.00;;;;8243097;28;20338;-68
2023/09/27 09:23:49;;;;;;;9.57;8.25;;;;;24.40;96931.00;;;;8247157;28;20245;-68
2023/09/27 09:28:03;;;;;;;8.85;7.22;;;;;24.90;96930.00;;;;8245697;28;20812;-68
2023/09/27 09:32:10;;;;;;;12.65;8.32;;;;;25.30;96929.00;;;;8237694;28;20928;-68
2023/09/27 09:36:15;;;;;;;11.13;7.45;;;;;25.70;96926.00;;;;8235292;28;20203;-67
2023/09/27 09:40:19;;;;;;;12.32;8.05;;;;;26.40;96928.00;;;;8236598;28;20240;-68
2023/09/27 09:44:23;;;;;;;8.98;7.68;;;;;26.70;96923.00;;;;8241949;28;20226;-67
2023/09/27 09:48:27;;;;;;;9.38;7.70;;;;;26.70;96934.00;;;;8243672;28;20203;-67
2023/09/27 09:52:35;;;;;;;9.48;7.53;;;;;26.60;96937.00;;;;8235226;28;20257;-68
2023/09/27 09:56:41;;;;;;;8.68;6.85;;;;;26.60;96936.00;;;;8234455;28;22489;-67
2023/09/27 10:01:02;;;;;;;8.52;6.50;;;;;27.00;96926.00;;;;8235472;28;20835;-68
2023/09/27 10:05:07;;;;;;;7.63;6.47;;;;;27.40;96919.00;;;;8238669;28;20226;-67
2023/09/27 10:09:14;;;;;;;9.45;6.10;;;;;27.70;96928.00;;;;8236667;28;20226;-68
2023/09/27 10:13:19;;;;;;;7.93;5.85;;;;;27.70;96917.00;;;;8239039;28;20217;-67
2023/09/27 10:17:25;;;;;;;8.80;5.97;;;;;27.60;96909.00;;;;8235910;28;20861;-67
2023/09/27 10:21:30;;;;;;;10.57;6.05;;;;;27.60;96908.00;;;;8241091;28;20199;-68
2023/09/27 10:25:38;;;;;;;8.50;6.97;;;;;27.30;96891.00;;;;8231501;28;20203;-67
2023/09/27 10:29:58;;;;;;;10.77;7.10;;;;;27.00;96883.00;;;;8242196;28;20278;-67
2023/09/27 10:34:01;;;;;;;7.13;5.65;;;;;26.90;96876.00;;;;8239644;28;20294;-68
2023/09/27 10:38:09;;;;;;;10.43;7.60;;;;;26.70;96882.00;;;;8243690;28;20330;-68
2023/09/27 10:42:42;;;;;;;10.65;6.10;;;;;26.60;96872.00;;;;8241220;28;20195;-67
2023/09/27 10:46:48;;;;;;;9.85;7.15;;;;;26.80;96873.00;;;;8242159;28;20664;-67
2023/09/27 10:50:55;;;;;;;8.70;6.97;;;;;26.70;96868.00;;;;8243730;28;20644;-67
2023/09/27 10:55:15;;;;;;;12.35;7.78;;;;;26.90;96870.00;;;;8240632;28;20723;-67
2023/09/27 10:59:24;;;;;;;13.18;7.35;;;;;26.90;96867.00;;;;8243460;28;20885;-68
2023/09/27 11:03:29;;;;;;;11.82;7.57;;;;;26.80;96870.00;;;;8244076;28;20231;-67
2023/09/27 11:07:47;;;;;;;13.30;8.85;;;;;26.80;96857.00;;;;8245865;28;20280;-67
2023/09/27 11:11:57;;;;;;;10.60;7.95;;;;;26.70;96867.00;;;;8244240;28;20203;-67
2023/09/27 11:16:11;;;;;;;11.38;8.63;;;;;26.50;96860.00;;;;8238839;28;20923;-68
2023/09/27 11:20:15;;;;;;;11.73;9.30;;;;;26.40;96855.00;;;;8243586;28;20235;-67
2023/09/27 11:24:19;;;;;;;13.32;7.75;;;;;26.30;96852.00;;;;8241600;28;20211;-67
2023/09/27 11:28:24;;;;;;;17.00;10.27;;;;;26.60;96845.00;;;;8242967;28;20241;-68
2023/09/27 11:32:31;;;;;;;12.35;8.20;;;;;26.30;96838.00;;;;8242135;28;20281;-67
2023/09/27 11:36:41;;;;;;;13.23;8.40;;;;;26.40;96832.00;;;;8240805;28;20199;-68
2023/09/27 11:40:48;;;;;;;11.98;8.60;;;;;26.50;96823.00;;;;8241378;28;20261;-67
2023/09/27 11:45:08;;;;;;;13.52;8.27;;;;;26.30;96818.00;;;;8241425;28;20365;-67
2023/09/27 11:49:13;;;;;;;12.95;9.43;;;;;26.20;96811.00;;;;8242706;28;20269;-65
2023/09/27 11:53:17;;;;;;;13.68;9.00;;;;;26.20;96810.00;;;;8228579;28;20207;-66
2023/09/27 11:57:21;;;;;;;12.73;8.88;;;;;26.20;96803.00;;;;8237087;28;20210;-65
2023/09/27 12:01:24;;;;;;;9.45;8.40;;;;;26.30;96808.00;;;;8239111;28;20653;-65
2023/09/27 12:05:29;;;;;;;13.38;10.30;;;;;26.30;96803.00;;;;8240213;28;20199;-65
2023/09/27 12:09:35;;;;;;;10.80;7.32;;;;;26.30;96804.00;;;;8251823;28;20775;-66
2023/09/27 12:13:39;;;;;;;12.82;8.70;;;;;26.30;96797.00;;;;8246483;28;20594;-65
2023/09/27 12:17:43;;;;;;;15.95;9.55;;;;;26.30;96795.00;;;;8246323;28;20215;-65
2023/09/27 12:21:51;;;;;;;11.13;7.93;;;;;26.10;96794.00;;;;8245450;28;20269;-65
2023/09/27 12:25:58;;;;;;;16.20;9.00;;;;;26.10;96786.00;;;;8247645;28;20218;-65
2023/09/27 12:30:02;;;;;;;16.27;9.48;;;;;26.00;96768.00;;;;8237907;28;20954;-66
2023/09/27 12:34:06;;;;;;;13.15;9.98;;;;;26.00;96766.00;;;;8243507;28;20199;-67
2023/09/27 12:38:11;;;;;;;13.45;9.95;;;;;25.80;96761.00;;;;8242732;28;20202;-66
2023/09/27 12:42:17;;;;;;;9.75;7.85;;;;;25.80;96754.00;;;;8242050;28;20714;-66
2023/09/27 12:46:20;;;;;;;11.52;7.85;;;;;25.90;96751.00;;;;8246447;28;20238;-66
2023/09/27 12:50:26;;;;;;;14.35;8.48;;;;;25.80;96744.00;;;;8245422;28;20805;-66
2023/09/27 12:54:31;;;;;;;16.30;9.43;;;;;25.80;96742.00;;;;8244482;28;20202;-66
2023/09/27 12:58:39;;;;;;;12.15;7.80;;;;;25.80;96746.00;;;;8240359;28;20229;-66
2023/09/27 13:02:42;;;;;;;11.70;8.23;;;;;25.90;96733.00;;;;8245235;28;20230;-66
2023/09/27 13:06:46;;;;;;;10.57;7.93;;;;;26.00;96727.00;;;;8240063;28;20207;-65
2023/09/27 13:10:55;;;;;;;11.68;7.18;;;;;26.00;96728.00;;;;8247240;28;20206;-65
2023/09/27 13:15:00;;;;;;;16.15;7.05;;;;;26.00;96716.00;;;;8245343;28;20207;-66
2023/09/27 13:19:04;;;;;;;11.38;8.43;;;;;25.90;96716.00;;;;8242262;28;20335;-66
2023/09/27 13:23:07;;;;;;;14.15;8.85;;;;;25.80;96712.00;;;;8245379;28;20250;-66
2023/09/27 13:27:11;;;;;;;16.05;9.23;;;;;25.70;96701.00;;;;8251854;28;20794;-66
2023/09/27 13:31:15;;;;;;;12.88;9.93;;;;;25.60;96692.00;;;;8254622;28;20210;-66
2023/09/27 13:35:18;;;;;;;16.15;9.20;;;;;25.50;96692.00;;;;8243786;28;20204;-66
2023/09/27 13:39:29;;;;;;;15.23;10.35;;;;;25.50;96687.00;;;;8240374;28;20227;-66
2023/09/27 13:43:35;;;;;;;16.98;10.60;;;;;25.40;96666.00;;;;8251272;28;20206;-66
2023/09/27 13:47:41;;;;;;;10.38;8.80;;;;;25.40;96660.00;;;;8248040;28;20227;-66
2023/09/27 13:51:46;;;;;;;15.02;9.52;;;;;25.40;96670.00;;;;8250038;28;20198;-66
2023/09/27 13:56:00;;;;;;;14.75;10.48;;;;;25.50;96665.00;;;;8242737;28;20219;-65
2023/09/27 14:00:07;;;;;;;18.05;9.32;;;;;25.60;96669.00;;;;8244065;28;20231;-65
2023/09/27 14:04:10;;;;;;;12.65;9.23;;;;;25.60;96668.00;;;;8244869;28;20340;-66
2023/09/27 14:08:13;;;;;;;9.30;8.38;;;;;25.80;96664.00;;;;8243759;28;20221;-66
2023/09/27 14:12:17;;;;;;;14.90;9.35;;;;;25.90;96655.00;;;;8245935;28;20203;-66
2023/09/27 14:16:21;;;;;;;13.10;9.60;;;;;26.00;96649.00;;;;8246290;28;20656;-65
2023/09/27 14:20:25;;;;;;;13.15;9.20;;;;;26.00;96646.00;;;;8240748;28;20241;-65
2023/09/27 14:24:31;;;;;;;10.27;8.25;;;;;26.10;96641.00;;;;8246697;28;20434;-66
2023/09/27 14:28:34;;;;;;;13.55;9.25;;;;;26.00;96635.00;;;;8245687;28;20198;-66
2023/09/27 14:32:39;;;;;;;13.18;9.30;;;;;26.00;96643.00;;;;8242278;28;20199;-65
2023/09/27 14:36:45;;;;;;;11.15;8.88;;;;;26.10;96635.00;;;;8242177;28;20211;-65
2023/09/27 14:40:52;;;;;;;12.27;8.43;;;;;26.30;96631.00;;;;8242941;28;20233;-65
2023/09/27 14:44:57;;;;;;;12.95;9.25;;;;;26.30;96623.00;;;;8245382;28;20203;-65
2023/09/27 14:49:02;;;;;;;16.67;10.63;;;;;26.20;96624.00;;;;8244220;28;20195;-65
2023/09/27 14:53:06;;;;;;;15.25;11.60;;;;;26.10;96620.00;;;;8245043;28;20202;-64
2023/09/27 14:57:09;;;;;;;15.95;9.80;;;;;26.00;96627.00;;;;8239933;28;20294;-65
2023/09/27 15:01:17;;;;;;;15.27;9.40;;;;;26.00;96608.00;;;;8245016;28;20321;-65
2023/09/27 15:05:24;;;;;;;15.98;10.30;;;;;26.00;96612.00;;;;8251723;28;20246;-65
2023/09/27 15:09:30;;;;;;;14.70;10.80;;;;;25.80;96604.00;;;;8254926;28;20203;-65
2023/09/27 15:13:34;;;;;;;13.65;9.55;;;;;25.80;96600.00;;;;8255169;28;20568;-65
2023/09/27 15:17:41;;;;;;;13.85;10.65;;;;;25.70;96597.00;;;;8252180;28;20213;-65
2023/09/27 15:21:49;;;;;;;14.63;10.40;;;;;25.60;96605.00;;;;8249735;28;20246;-65
2023/09/27 15:25:58;;;;;;;14.88;9.65;;;;;25.60;96601.00;;;;8248338;28;20207;-65
2023/09/27 15:30:03;;;;;;;16.88;10.88;;;;;25.60;96600.00;;;;8257323;28;20749;-65
2023/09/27 15:34:06;;;;;;;16.58;10.63;;;;;25.60;96596.00;;;;8263222;28;20568;-64
2023/09/27 15:38:10;;;;;;;15.20;10.38;;;;;25.50;96599.00;;;;8260203;28;20654;-65
2023/09/27 15:42:15;;;;;;;14.00;10.25;;;;;25.40;96596.00;;;;8256327;28;20236;-65
2023/09/27 15:46:19;;;;;;;16.35;9.90;;;;;25.40;96594.00;;;;8254446;28;20213;-65
2023/09/27 15:50:26;;;;;;;17.48;12.00;;;;;25.40;96599.00;;;;8257048;28;20203;-65
2023/09/27 15:54:36;;;;;;;18.67;12.20;;;;;25.10;96601.00;;;;8252597;28;20206;-65
2023/09/27 15:58:39;;;;;;;18.60;11.75;;;;;24.80;96593.00;;;;8256827;28;20250;-65
2023/09/27 16:02:47;;;;;;;17.25;10.98;;;;;24.30;96601.00;;;;8258865;28;20223;-65
2023/09/27 16:06:50;;;;;;;20.13;11.55;;;;;24.00;96594.00;;;;8255505;28;20210;-65
2023/09/27 16:10:55;;;;;;;23.40;11.65;;;;;23.80;96592.00;;;;8259954;28;20246;-65
2023/09/27 16:14:58;;;;;;;25.52;11.15;;;;;23.60;96582.00;;;;8253724;28;20253;-65
2023/09/27 16:19:05;;;;;;;17.67;10.20;;;;;23.40;96587.00;;;;8255971;28;20200;-65
2023/09/27 16:23:09;;;;;;;16.85;10.75;;;;;23.10;96580.00;;;;8255747;28;21001;-65
2023/09/27 16:27:13;;;;;;;14.82;10.88;;;;;22.90;96585.00;;;;8253191;28;20353;-65
2023/09/27 16:31:16;;;;;;;16.30;10.68;;;;;22.70;96578.00;;;;8252497;28;20203;-65
2023/09/27 16:35:20;;;;;;;15.30;11.13;;;;;22.40;96579.00;;;;8254302;28;20643;-65
2023/09/27 16:39:23;;;;;;;16.65;10.73;;;;;22.10;96576.00;;;;8256938;28;20199;-65
2023/09/27 16:43:29;;;;;;;17.23;10.70;;;;;21.90;96573.00;;;;8252607;28;20687;-65
2023/09/27 16:47:33;;;;;;;12.75;10.15;;;;;21.70;96571.00;;;;8250582;28;21014;-66
2023/09/27 16:51:36;;;;;;;15.07;11.38;;;;;21.50;96576.00;;;;8250842;28;20205;-66
2023/09/27 16:55:41;;;;;;;13.63;10.98;;;;;21.30;96577.00;;;;8246682;28;20203;-66
2023/09/27 16:59:45;;;;;;;15.00;10.77;;;;;21.00;96578.00;;;;8248513;28;20976;-66
2023/09/27 17:03:49;;;;;;;14.60;11.10;;;;;20.80;96575.00;;;;8256126;28;20316;-66
2023/09/27 17:07:52;;;;;;;17.48;10.95;;;;;20.50;96578.00;;;;8249986;28;20245;-66
2023/09/27 17:11:57;;;;;;;19.17;10.25;;;;;20.20;96585.00;;;;8247944;28;20549;-66
2023/09/27 17:16:02;;;;;;;21.25;10.57;;;;;19.90;96590.00;;;;8245609;28;20731;-66
2023/09/27 17:20:10;;;;;;;15.02;10.38;;;;;19.60;96594.00;;;;8251143;28;20209;-66
2023/09/27 17:24:14;;;;;;;18.58;10.95;;;;;19.30;96590.00;;;;8247020;28;20238;-66
2023/09/27 17:28:19;;;;;;;25.52;11.65;;;;;19.10;96591.00;;;;8247166;28;20289;-65
2023/09/27 17:32:26;;;;;;;14.48;10.60;;;;;18.90;96586.00;;;;8245800;28;20290;-66
2023/09/27 17:36:30;;;;;;;17.33;11.05;;;;;18.70;96582.00;;;;8252988;28;20213;-66
2023/09/27 17:40:39;;;;;;;20.80;12.52;;;;;18.60;96582.00;;;;8253254;28;20333;-66
2023/09/27 17:44:43;;;;;;;19.50;10.65;;;;;18.40;96585.00;;;;8248995;28;20953;-66
2023/09/27 17:48:52;;;;;;;20.48;11.23;;;;;18.30;96585.00;;;;8242604;28;20203;-66
2023/09/27 17:53:00;;;;;;;18.13;10.88;;;;;18.10;96582.00;;;;8248831;28;20292;-66
2023/09/27 17:57:04;;;;;;;21.38;12.50;;;;;18.00;96576.00;;;;8246020;28;20230;-67
2023/09/27 18:01:09;;;;;;;16.80;11.48;;;;;17.90;96579.00;;;;8245701;28;20255;-66
2023/09/27 18:05:15;;;;;;;16.65;11.10;;;;;17.80;96578.00;;;;8239714;28;20230;-64
2023/09/27 18:09:21;;;;;;;14.15;9.98;;;;;17.60;96584.00;;;;8244035;28;20229;-64
2023/09/27 18:13:24;;;;;;;17.10;10.15;;;;;17.50;96579.00;;;;8240171;28;20197;-64
2023/09/27 18:17:30;;;;;;;18.70;11.02;;;;;17.40;96581.00;;;;8243454;28;20203;-64
2023/09/27 18:21:35;;;;;;;21.88;11.07;;;;;17.20;96578.00;;;;8240663;28;20305;-65
2023/09/27 18:25:43;;;;;;;20.65;11.85;;;;;17.00;96575.00;;;;8243187;28;20624;-65
2023/09/27 18:29:49;;;;;;;20.98;13.27;;;;;16.90;96576.00;;;;8243923;28;20206;-65
2023/09/27 18:33:52;;;;;;;17.77;10.48;;;;;16.80;96572.00;;;;8241100;28;20214;-65
2023/09/27 18:37:59;;;;;;;20.52;12.10;;;;;16.60;96563.00;;;;8239720;28;20235;-64
2023/09/27 18:42:04;;;;;;;23.08;12.60;;;;;16.50;96568.00;;;;8247499;28;20244;-64
2023/09/27 18:46:07;;;;;;;18.40;12.57;;;;;16.40;96560.00;;;;8242118;28;20203;-64
2023/09/27 18:50:13;;;;;;;22.02;13.40;;;;;16.30;96556.00;;;;8238833;28;20210;-64
2023/09/27 18:54:21;;;;;;;20.65;12.98;;;;;16.20;96559.00;;;;8242893;28;20286;-64
2023/09/27 18:58:26;;;;;;;26.15;13.65;;;;;16.00;96553.00;;;;8240096;28;20322;-64
2023/09/27 19:02:30;;;;;;;19.77;13.02;;;;;15.80;96557.00;;;;8242072;28;20374;-64
2023/09/27 19:06:38;;;;;;;23.70;13.25;;;;;15.70;96560.00;;;;8235594;28;20206;-65
2023/09/27 19:10:45;;;;;;;29.40;15.43;;;;;15.60;96557.00;;;;8236792;28;20237;-65
2023/09/27 19:14:53;;;;;;;24.98;14.10;;;;;15.50;96555.00;;;;8243988;28;20502;-64
2023/09/27 19:18:56;;;;;;;29.20;14.23;;;;;15.40;96556.00;;;;8244057;28;20238;-64
2023/09/27 19:23:05;;;;;;;24.30;14.48;;;;;15.20;96549.00;;;;8249713;28;20308;-65
2023/09/27 19:27:11;;;;;;;24.95;14.13;;;;;15.10;96547.00;;;;8245082;28;20245;-65
2023/09/27 19:31:18;;;;;;;37.97;16.88;;;;;15.10;96550.00;;;;8240849;28;20210;-64
2023/09/27 19:35:23;;;;;;;27.40;15.07;;;;;15.10;96555.00;;;;8240680;28;20265;-64
2023/09/27 19:39:30;;;;;;;30.35;15.75;;;;;15.00;96550.00;;;;8242141;28;20285;-65
2023/09/27 19:43:36;;;;;;;31.58;15.02;;;;;15.00;96545.00;;;;8238687;28;20261;-64
2023/09/27 19:47:43;;;;;;;30.48;16.27;;;;;15.00;96546.00;;;;8245380;28;21526;-64
2023/09/27 19:51:46;;;;;;;35.83;16.90;;;;;14.90;96551.00;;;;8239131;28;20210;-63
2023/09/27 19:55:49;;;;;;;30.85;16.38;;;;;14.80;96550.00;;;;8241474;28;20207;-64
2023/09/27 19:59:56;;;;;;;38.15;17.58;;;;;14.70;96541.00;;;;8242854;28;20207;-63
2023/09/27 20:03:59;;;;;;;29.98;16.83;;;;;14.70;96540.00;;;;8247022;28;20265;-64